createdAt,value
2018-06-05T00:00:19.270Z,17.51
2018-06-05T00:01:19.223Z,17.49
2018-06-05T00:02:19.178Z,17.48
2018-06-05T00:03:19.129Z,17.49
2018-06-05T00:04:19.107Z,17.53
2018-06-05T00:05:19.039Z,17.56
2018-06-05T00:06:18.991Z,17.54
2018-06-05T00:07:18.944Z,17.49
2018-06-05T00:08:18.897Z,17.44
2018-06-05T00:09:18.885Z,17.57
2018-06-05T00:10:18.808Z,17.46
2018-06-05T00:11:18.765Z,17.48
2018-06-05T00:12:18.714Z,17.51
2018-06-05T00:13:18.667Z,17.56
2018-06-05T00:14:18.643Z,17.54
2018-06-05T00:15:18.579Z,17.56
2018-06-05T00:16:18.530Z,17.57
2018-06-05T00:17:18.483Z,17.59
2018-06-05T00:18:18.438Z,17.67
2018-06-05T00:19:18.416Z,17.73
2018-06-05T00:20:18.345Z,17.65
2018-06-05T00:21:18.304Z,17.63
2018-06-05T00:22:18.261Z,17.63
2018-06-05T00:23:18.209Z,17.64
2018-06-05T00:24:18.185Z,17.65
2018-06-05T00:25:18.116Z,17.63
2018-06-05T00:26:18.070Z,17.63
2018-06-05T00:27:18.025Z,17.60
2018-06-05T00:28:17.977Z,17.49
2018-06-05T00:29:17.953Z,17.54
2018-06-05T00:30:17.890Z,17.49
2018-06-05T00:31:17.841Z,17.53
2018-06-05T00:32:17.793Z,17.49
2018-06-05T00:33:17.748Z,17.56
2018-06-05T00:34:17.729Z,17.54
2018-06-05T00:35:17.656Z,17.53
2018-06-05T00:36:17.611Z,17.53
2018-06-05T00:37:17.562Z,17.57
2018-06-05T00:38:17.516Z,17.57
2018-06-05T00:39:17.508Z,17.51
2018-06-05T00:40:17.425Z,17.54
2018-06-05T00:41:17.379Z,17.54
2018-06-05T00:42:17.333Z,17.53
2018-06-05T00:43:17.289Z,17.57
2018-06-05T00:44:17.238Z,17.54
2018-06-05T00:45:17.216Z,17.54
2018-06-05T00:46:17.149Z,17.56
2018-06-05T00:47:17.105Z,17.56
2018-06-05T00:48:17.060Z,17.63
2018-06-05T00:49:17.010Z,17.64
2018-06-05T00:50:16.988Z,17.67
2018-06-05T00:51:16.917Z,17.64
2018-06-05T00:52:16.871Z,17.59
2018-06-05T00:53:16.825Z,17.59
2018-06-05T00:54:16.779Z,17.59
2018-06-05T00:55:16.754Z,17.56
2018-06-05T00:56:16.687Z,17.57
2018-06-05T00:57:16.643Z,17.53
2018-06-05T00:58:16.594Z,17.60
2018-06-05T00:59:16.548Z,17.56
2018-06-05T01:00:16.529Z,17.54
2018-06-05T01:01:16.460Z,17.56
2018-06-05T01:02:16.411Z,17.49
2018-06-05T01:03:16.368Z,17.54
2018-06-05T01:04:16.325Z,17.44
2018-06-05T01:05:16.309Z,17.45
2018-06-05T01:06:16.229Z,17.46
2018-06-05T01:07:16.182Z,17.51
2018-06-05T01:08:16.132Z,17.37
2018-06-05T01:09:16.092Z,17.37
2018-06-05T01:10:16.067Z,17.38
2018-06-05T01:11:15.992Z,17.33
2018-06-05T01:12:15.948Z,17.41
2018-06-05T01:13:15.905Z,17.37
2018-06-05T01:14:15.862Z,17.37
2018-06-05T01:15:15.835Z,17.38
2018-06-05T01:16:15.767Z,17.31
2018-06-05T01:17:15.718Z,17.33
2018-06-05T01:18:15.674Z,17.37
2018-06-05T01:19:15.627Z,17.38
2018-06-05T01:20:15.629Z,17.39
2018-06-05T01:21:15.536Z,17.31
2018-06-05T01:22:15.492Z,17.37
2018-06-05T01:23:15.439Z,17.37
2018-06-05T01:24:15.399Z,17.33
2018-06-05T01:25:15.376Z,17.31
2018-06-05T01:26:15.304Z,17.35
2018-06-05T01:27:15.261Z,17.31
2018-06-05T01:28:15.217Z,17.30
2018-06-05T01:29:15.164Z,17.33
2018-06-05T01:30:15.143Z,17.29
2018-06-05T01:31:15.075Z,17.26
2018-06-05T01:32:15.026Z,17.29
2018-06-05T01:33:14.981Z,17.33
2018-06-05T01:34:14.938Z,17.31
2018-06-05T01:35:14.913Z,17.27
2018-06-05T01:36:14.844Z,17.31
2018-06-05T01:37:14.801Z,17.31
2018-06-05T01:38:14.750Z,17.19
2018-06-05T01:39:14.705Z,17.22
2018-06-05T01:40:14.681Z,17.24
2018-06-05T01:41:14.611Z,17.12
2018-06-05T01:42:14.566Z,17.26
2018-06-05T01:43:14.523Z,17.19
2018-06-05T01:44:14.475Z,17.19
2018-06-05T01:45:14.451Z,17.19
2018-06-05T01:46:14.381Z,17.17
2018-06-05T01:47:14.336Z,17.16
2018-06-05T01:48:14.290Z,17.14
2018-06-05T01:49:14.243Z,17.05
2018-06-05T01:50:14.220Z,17.11
2018-06-05T01:51:14.151Z,17.16
2018-06-05T01:52:14.104Z,17.17
2018-06-05T01:53:14.063Z,17.12
2018-06-05T01:54:14.012Z,17.14
2018-06-05T01:55:13.990Z,17.17
2018-06-05T01:56:13.919Z,17.17
2018-06-05T01:57:13.872Z,17.20
2018-06-05T01:58:13.829Z,17.14
2018-06-05T01:59:13.781Z,17.09
2018-06-05T02:00:13.760Z,17.19
2018-06-05T02:01:13.688Z,17.16
2018-06-05T02:02:13.641Z,17.11
2018-06-05T02:03:13.600Z,17.09
2018-06-05T02:04:13.551Z,17.08
2018-06-05T02:05:13.541Z,17.05
2018-06-05T02:06:13.461Z,16.96
2018-06-05T02:07:13.413Z,16.99
2018-06-05T02:08:13.367Z,16.99
2018-06-05T02:09:13.318Z,16.91
2018-06-05T02:10:13.311Z,16.90
2018-06-05T02:11:13.224Z,16.93
2018-06-05T02:12:13.179Z,16.87
2018-06-05T02:13:13.137Z,16.98
2018-06-05T02:14:13.086Z,17.02
2018-06-05T02:15:13.042Z,16.99
2018-06-05T02:16:13.020Z,17.04
2018-06-05T02:17:12.953Z,17.02
2018-06-05T02:18:12.901Z,16.94
2018-06-05T02:19:12.854Z,17.02
2018-06-05T02:20:12.813Z,17.02
2018-06-05T02:21:12.785Z,16.94
2018-06-05T02:22:12.716Z,16.86
2018-06-05T02:23:12.668Z,16.89
2018-06-05T02:24:12.625Z,16.93
2018-06-05T02:25:12.579Z,16.91
2018-06-05T02:26:12.554Z,16.91
2018-06-05T02:27:12.487Z,16.90
2018-06-05T02:28:12.441Z,16.86
2018-06-05T02:29:12.426Z,16.96
2018-06-05T02:30:12.345Z,16.91
2018-06-05T02:31:12.327Z,16.91
2018-06-05T02:32:12.251Z,16.98
2018-06-05T02:33:12.208Z,16.89
2018-06-05T02:34:12.173Z,16.94
2018-06-05T02:35:12.118Z,16.89
2018-06-05T02:36:12.089Z,16.93
2018-06-05T02:37:12.021Z,16.87
2018-06-05T02:38:11.976Z,16.99
2018-06-05T02:39:11.928Z,16.96
2018-06-05T02:40:11.881Z,16.89
2018-06-05T02:41:11.860Z,16.93
2018-06-05T02:42:11.787Z,16.94
2018-06-05T02:43:11.742Z,16.87
2018-06-05T02:44:11.697Z,16.87
2018-06-05T02:45:11.650Z,16.91
2018-06-05T02:46:11.623Z,16.87
2018-06-05T02:47:11.557Z,16.87
2018-06-05T02:48:11.509Z,16.86
2018-06-05T02:49:11.462Z,16.89
2018-06-05T02:50:11.416Z,16.76
2018-06-05T02:51:11.393Z,16.84
2018-06-05T02:52:11.343Z,16.83
2018-06-05T02:53:11.276Z,16.84
2018-06-05T02:54:11.233Z,16.87
2018-06-05T02:55:11.186Z,16.80
2018-06-05T02:56:11.160Z,16.84
2018-06-05T02:57:11.093Z,16.86
2018-06-05T02:58:11.047Z,16.80
2018-06-05T02:59:10.999Z,16.76
2018-06-05T03:00:10.952Z,16.71
2018-06-05T03:01:10.928Z,16.71
2018-06-05T03:02:10.862Z,16.68
2018-06-05T03:03:10.814Z,16.57
2018-06-05T03:04:10.764Z,16.61
2018-06-05T03:05:10.719Z,16.61
2018-06-05T03:06:10.697Z,16.59
2018-06-05T03:07:10.626Z,16.57
2018-06-05T03:08:10.580Z,16.56
2018-06-05T03:09:10.536Z,16.54
2018-06-05T03:10:10.489Z,16.47
2018-06-05T03:11:10.471Z,16.50
2018-06-05T03:12:10.395Z,16.47
2018-06-05T03:13:10.347Z,16.47
2018-06-05T03:14:10.301Z,16.46
2018-06-05T03:15:10.258Z,16.41
2018-06-05T03:16:10.231Z,16.34
2018-06-05T03:17:10.164Z,16.38
2018-06-05T03:18:10.120Z,16.43
2018-06-05T03:19:10.073Z,16.41
2018-06-05T03:20:10.021Z,16.36
2018-06-05T03:21:09.997Z,16.35
2018-06-05T03:22:09.932Z,16.36
2018-06-05T03:23:09.883Z,16.34
2018-06-05T03:24:09.833Z,16.35
2018-06-05T03:25:09.789Z,16.43
2018-06-05T03:26:09.767Z,16.39
2018-06-05T03:27:09.701Z,16.35
2018-06-05T03:28:09.655Z,16.47
2018-06-05T03:29:09.603Z,16.46
2018-06-05T03:30:09.556Z,16.44
2018-06-05T03:31:09.533Z,16.54
2018-06-05T03:32:09.462Z,16.47
2018-06-05T03:33:09.417Z,16.49
2018-06-05T03:34:09.372Z,16.38
2018-06-05T03:35:09.329Z,16.35
2018-06-05T03:36:09.303Z,16.32
2018-06-05T03:37:09.231Z,16.35
2018-06-05T03:38:09.183Z,16.39
2018-06-05T03:39:09.137Z,16.41
2018-06-05T03:40:09.087Z,16.51
2018-06-05T03:41:09.066Z,16.51
2018-06-05T03:42:08.995Z,16.47
2018-06-05T03:43:08.947Z,16.50
2018-06-05T03:44:08.906Z,16.47
2018-06-05T03:45:08.856Z,16.51
2018-06-05T03:46:08.810Z,16.54
2018-06-05T03:47:08.789Z,16.54
2018-06-05T03:48:08.715Z,16.46
2018-06-05T03:49:08.672Z,16.38
2018-06-05T03:50:08.624Z,16.34
2018-06-05T03:51:08.576Z,16.32
2018-06-05T03:52:08.553Z,16.29
2018-06-05T03:53:08.486Z,16.36
2018-06-05T03:54:08.435Z,16.32
2018-06-05T03:55:08.398Z,16.31
2018-06-05T03:56:08.345Z,16.32
2018-06-05T03:57:08.351Z,16.43
2018-06-05T03:58:08.270Z,16.39
2018-06-05T03:59:08.203Z,16.44
2018-06-05T04:00:08.158Z,16.46
2018-06-05T04:01:08.109Z,16.44
2018-06-05T04:02:08.089Z,16.41
2018-06-05T04:03:08.020Z,16.46
2018-06-05T04:04:07.984Z,16.44
2018-06-05T04:05:07.930Z,16.44
2018-06-05T04:06:07.880Z,16.35
2018-06-05T04:07:07.853Z,16.32
2018-06-05T04:08:07.783Z,16.28
2018-06-05T04:09:07.740Z,16.16
2018-06-05T04:10:07.695Z,16.16
2018-06-05T04:11:07.643Z,16.26
2018-06-05T04:12:07.617Z,16.29
2018-06-05T04:13:07.554Z,16.16
2018-06-05T04:14:07.505Z,16.25
2018-06-05T04:15:07.456Z,16.06
2018-06-05T04:16:07.415Z,16.02
2018-06-05T04:17:07.387Z,16.06
2018-06-05T04:18:07.324Z,16.09
2018-06-05T04:19:07.270Z,16.16
2018-06-05T04:20:07.241Z,16.13
2018-06-05T04:21:07.178Z,16.12
2018-06-05T04:22:07.152Z,16.17
2018-06-05T04:23:07.086Z,16.21
2018-06-05T04:24:07.039Z,16.29
2018-06-05T04:25:07.007Z,16.34
2018-06-05T04:26:06.950Z,16.39
2018-06-05T04:27:06.955Z,16.29
2018-06-05T04:28:06.854Z,16.29
2018-06-05T04:29:06.808Z,16.32
2018-06-05T04:30:06.758Z,16.36
2018-06-05T04:31:06.733Z,16.34
2018-06-05T04:32:06.686Z,16.39
2018-06-05T04:33:06.621Z,16.31
2018-06-05T04:34:06.572Z,16.35
2018-06-05T04:35:06.527Z,16.31
2018-06-05T04:36:06.512Z,16.34
2018-06-05T04:37:06.456Z,16.32
2018-06-05T04:38:06.384Z,16.41
2018-06-05T04:39:06.340Z,16.31
2018-06-05T04:40:06.291Z,16.38
2018-06-05T04:41:06.246Z,16.34
2018-06-05T04:42:06.223Z,16.39
2018-06-05T04:43:06.153Z,16.38
2018-06-05T04:44:06.106Z,16.36
2018-06-05T04:45:06.066Z,16.35
2018-06-05T04:46:06.020Z,16.34
2018-06-05T04:47:05.989Z,16.24
2018-06-05T04:48:05.920Z,16.13
2018-06-05T04:49:05.874Z,16.21
2018-06-05T04:50:05.825Z,16.13
2018-06-05T04:51:05.784Z,16.25
2018-06-05T04:52:05.756Z,16.29
2018-06-05T04:53:05.684Z,16.15
2018-06-05T04:54:05.637Z,16.25
2018-06-05T04:55:05.593Z,16.17
2018-06-05T04:56:05.547Z,16.26
2018-06-05T04:57:05.530Z,16.32
2018-06-05T04:58:05.451Z,16.29
2018-06-05T04:59:05.405Z,16.17
2018-06-05T05:00:05.357Z,16.26
2018-06-05T05:01:05.310Z,16.38
2018-06-05T05:02:05.296Z,16.35
2018-06-05T05:03:05.221Z,16.29
2018-06-05T05:04:05.171Z,16.29
2018-06-05T05:05:05.125Z,16.29
2018-06-05T05:06:05.082Z,16.28
2018-06-05T05:07:05.055Z,16.17
2018-06-05T05:08:04.986Z,16.16
2018-06-05T05:09:04.939Z,16.34
2018-06-05T05:10:04.892Z,16.26
2018-06-05T05:11:04.844Z,16.16
2018-06-05T05:12:04.819Z,16.16
2018-06-05T05:13:04.752Z,16.24
2018-06-05T05:14:04.704Z,16.28
2018-06-05T05:15:04.657Z,16.25
2018-06-05T05:16:04.612Z,16.17
2018-06-05T05:17:04.588Z,16.20
2018-06-05T05:18:04.516Z,16.09
2018-06-05T05:19:04.473Z,16.20
2018-06-05T05:20:04.424Z,16.21
2018-06-05T05:22:36.029Z,16.17
2018-06-05T05:23:35.961Z,16.09
2018-06-05T05:24:35.909Z,16.02
2018-06-05T05:25:35.864Z,16.02
2018-06-05T05:26:35.816Z,16.06
2018-06-05T05:27:35.791Z,16.02
2018-06-05T05:28:35.859Z,16.08
2018-06-05T05:29:35.682Z,16.16
2018-06-05T05:30:35.629Z,16.13
2018-06-05T05:31:35.584Z,16.10
2018-06-05T05:32:35.556Z,16.06
2018-06-05T05:33:35.488Z,16.05
2018-06-05T05:34:35.442Z,16.15
2018-06-05T05:35:35.395Z,16.09
2018-06-05T05:36:35.347Z,16.12
2018-06-05T05:37:35.325Z,16.24
2018-06-05T05:38:35.257Z,16.20
2018-06-05T05:39:35.212Z,16.08
2018-06-05T05:40:35.160Z,16.10
2018-06-05T05:41:35.115Z,16.21
2018-06-05T05:42:35.091Z,16.06
2018-06-05T05:43:35.026Z,16.13
2018-06-05T05:44:34.979Z,16.06
2018-06-05T05:45:34.930Z,16.13
2018-06-05T05:46:34.884Z,16.13
2018-06-05T05:47:34.859Z,16.25
2018-06-05T05:48:34.787Z,16.16
2018-06-05T05:49:34.741Z,16.16
2018-06-05T05:50:34.698Z,16.21
2018-06-05T05:51:34.650Z,16.34
2018-06-05T05:52:34.626Z,16.21
2018-06-05T05:53:34.557Z,16.34
2018-06-05T05:54:34.511Z,16.39
2018-06-05T05:55:34.462Z,16.25
2018-06-05T05:56:34.418Z,16.31
2018-06-05T05:57:34.395Z,16.13
2018-06-05T05:58:34.322Z,16.13
2018-06-05T05:59:34.276Z,16.17
2018-06-05T06:00:34.230Z,16.16
2018-06-05T06:01:34.183Z,16.05
2018-06-05T06:02:34.164Z,16.09
2018-06-05T06:03:34.121Z,16.05
2018-06-05T06:04:34.046Z,16.09
2018-06-05T06:05:34.000Z,16.02
2018-06-05T06:06:33.951Z,16.01
2018-06-05T06:07:33.945Z,15.97
2018-06-05T06:08:33.862Z,16.05
2018-06-05T06:09:33.813Z,16.06
2018-06-05T06:10:33.769Z,15.95
2018-06-05T06:11:33.719Z,15.97
2018-06-05T06:12:33.673Z,16.00
2018-06-05T06:13:33.648Z,15.97
2018-06-05T06:14:33.581Z,15.95
2018-06-05T06:15:33.535Z,16.02
2018-06-05T06:16:33.484Z,16.05
2018-06-05T06:17:33.436Z,16.00
2018-06-05T06:18:33.418Z,16.02
2018-06-05T06:19:33.352Z,16.08
2018-06-05T06:20:33.303Z,16.10
2018-06-05T06:21:33.253Z,16.02
2018-06-05T06:22:33.206Z,16.01
2018-06-05T06:23:33.181Z,15.97
2018-06-05T06:24:33.111Z,15.97
2018-06-05T06:25:33.066Z,15.97
2018-06-05T06:26:33.022Z,15.97
2018-06-05T06:27:32.974Z,16.00
2018-06-05T06:28:32.953Z,16.05
2018-06-05T06:29:32.882Z,16.09
2018-06-05T06:30:32.831Z,15.98
2018-06-05T06:31:32.790Z,15.92
2018-06-05T06:32:32.742Z,15.83
2018-06-05T06:33:32.719Z,15.94
2018-06-05T06:34:32.650Z,15.92
2018-06-05T06:35:32.601Z,15.88
2018-06-05T06:36:32.552Z,16.01
2018-06-05T06:37:32.510Z,15.90
2018-06-05T06:38:32.526Z,16.01
2018-06-05T06:39:32.418Z,15.90
2018-06-05T06:40:32.368Z,15.95
2018-06-05T06:41:32.323Z,15.88
2018-06-05T06:42:32.275Z,15.90
2018-06-05T06:43:32.256Z,15.95
2018-06-05T06:44:32.183Z,15.87
2018-06-05T06:45:32.137Z,16.01
2018-06-05T06:46:32.085Z,16.06
2018-06-05T06:47:32.045Z,15.97
2018-06-05T06:48:32.069Z,15.92
2018-06-05T06:49:31.949Z,15.95
2018-06-05T06:50:31.901Z,15.95
2018-06-05T06:51:31.860Z,15.88
2018-06-05T06:52:31.808Z,15.94
2018-06-05T06:53:31.784Z,15.94
2018-06-05T06:54:31.732Z,15.91
2018-06-05T06:55:31.668Z,16.10
2018-06-05T06:56:31.622Z,16.05
2018-06-05T06:57:31.576Z,16.17
2018-06-05T06:58:31.550Z,16.21
2018-06-05T06:59:31.484Z,16.24
2018-06-05T07:00:31.441Z,16.34
2018-06-05T07:01:31.391Z,16.39
2018-06-05T07:02:31.342Z,16.49
2018-06-05T07:03:31.327Z,16.41
2018-06-05T07:04:31.249Z,16.54
2018-06-05T07:05:31.204Z,16.54
2018-06-05T07:06:31.165Z,16.54
2018-06-05T07:07:31.108Z,16.62
2018-06-05T07:08:31.087Z,16.68
2018-06-05T07:09:31.019Z,16.71
2018-06-05T07:10:30.975Z,16.74
2018-06-05T07:11:30.925Z,16.79
2018-06-05T07:12:30.877Z,16.74
2018-06-05T07:13:30.855Z,16.87
2018-06-05T07:14:30.787Z,16.87
2018-06-05T07:15:30.742Z,16.83
2018-06-05T07:16:30.693Z,16.69
2018-06-05T07:17:30.646Z,16.64
2018-06-05T07:18:30.625Z,16.62
2018-06-05T07:19:30.556Z,16.57
2018-06-05T07:20:30.510Z,16.51
2018-06-05T07:21:30.462Z,16.57
2018-06-05T07:22:30.426Z,16.56
2018-06-05T07:23:30.393Z,16.57
2018-06-05T07:24:30.327Z,16.61
2018-06-05T07:25:30.280Z,16.62
2018-06-05T07:26:30.231Z,16.71
2018-06-05T07:27:30.184Z,16.68
2018-06-05T07:28:30.164Z,16.76
2018-06-05T07:29:30.092Z,16.74
2018-06-05T07:30:30.106Z,16.75
2018-06-05T07:31:30.000Z,16.76
2018-06-05T07:32:29.954Z,16.87
2018-06-05T07:33:29.928Z,16.74
2018-06-05T07:34:29.868Z,16.68
2018-06-05T07:35:29.831Z,16.71
2018-06-05T07:36:29.767Z,16.64
2018-06-05T07:37:29.724Z,16.69
2018-06-05T07:38:29.700Z,16.68
2018-06-05T07:39:29.636Z,16.64
2018-06-05T07:40:29.584Z,16.46
2018-06-05T07:41:29.543Z,16.46
2018-06-05T07:42:29.491Z,16.44
2018-06-05T07:43:29.482Z,16.49
2018-06-05T07:44:29.398Z,16.51
2018-06-05T07:45:29.352Z,16.50
2018-06-05T07:46:29.310Z,16.56
2018-06-05T07:47:29.264Z,16.51
2018-06-05T07:48:29.212Z,16.54
2018-06-05T07:49:29.192Z,16.56
2018-06-05T07:50:29.123Z,16.61
2018-06-05T07:51:29.080Z,16.65
2018-06-05T07:52:29.026Z,16.62
2018-06-05T07:53:28.989Z,16.64
2018-06-05T07:54:28.958Z,16.66
2018-06-05T07:55:28.894Z,16.69
2018-06-05T07:56:28.843Z,16.72
2018-06-05T07:57:28.873Z,16.69
2018-06-05T07:58:28.754Z,16.74
2018-06-05T07:59:28.731Z,16.68
2018-06-05T08:00:28.669Z,16.71
2018-06-05T08:01:28.612Z,16.76
2018-06-05T08:02:28.567Z,16.69
2018-06-05T08:03:28.525Z,16.65
2018-06-05T08:04:28.498Z,16.76
2018-06-05T08:05:28.431Z,16.66
2018-06-05T08:06:28.382Z,16.65
2018-06-05T08:07:28.334Z,16.76
2018-06-05T08:08:28.286Z,16.69
2018-06-05T08:09:28.264Z,16.76
2018-06-05T08:10:28.194Z,16.82
2018-06-05T08:11:28.154Z,16.87
2018-06-05T08:12:28.105Z,16.87
2018-06-05T08:13:28.059Z,16.89
2018-06-05T08:14:28.043Z,16.87
2018-06-05T08:15:27.966Z,16.84
2018-06-05T08:16:27.917Z,16.80
2018-06-05T08:17:27.872Z,16.90
2018-06-05T08:18:27.870Z,16.80
2018-06-05T08:19:27.802Z,17.01
2018-06-05T08:20:27.732Z,16.87
2018-06-05T08:21:27.690Z,16.91
2018-06-05T08:22:27.643Z,17.01
2018-06-05T08:23:27.603Z,17.08
2018-06-05T08:24:27.611Z,17.16
2018-06-05T08:25:27.507Z,17.14
2018-06-05T08:26:27.458Z,17.14
2018-06-05T08:27:27.419Z,17.20
2018-06-05T08:28:27.369Z,17.20
2018-06-05T08:29:27.345Z,17.17
2018-06-05T08:30:27.275Z,17.14
2018-06-05T08:31:27.227Z,17.19
2018-06-05T08:32:27.181Z,17.14
2018-06-05T08:33:27.133Z,17.16
2018-06-05T08:34:27.118Z,17.19
2018-06-05T08:35:27.042Z,17.29
2018-06-05T08:36:26.997Z,17.35
2018-06-05T08:37:26.952Z,17.27
2018-06-05T08:38:26.910Z,17.33
2018-06-05T08:39:26.887Z,17.44
2018-06-05T08:40:26.812Z,17.41
2018-06-05T08:41:26.778Z,17.38
2018-06-05T08:42:26.726Z,17.35
2018-06-05T08:43:26.675Z,17.39
2018-06-05T08:44:26.663Z,17.27
2018-06-05T08:45:26.584Z,17.31
2018-06-05T08:46:26.538Z,17.29
2018-06-05T08:47:26.497Z,17.30
2018-06-05T08:48:26.479Z,17.30
2018-06-05T08:49:26.425Z,17.30
2018-06-05T08:50:26.381Z,17.29
2018-06-05T08:51:26.310Z,17.23
2018-06-05T08:52:26.266Z,17.24
2018-06-05T08:53:26.218Z,17.29
2018-06-05T08:54:26.197Z,17.17
2018-06-05T08:55:26.132Z,17.17
2018-06-05T08:56:26.082Z,17.19
2018-06-05T08:57:26.037Z,17.16
2018-06-05T08:58:25.991Z,17.14
2018-06-05T08:59:26.005Z,17.17
2018-06-05T09:00:25.895Z,17.33
2018-06-05T09:01:25.849Z,17.30
2018-06-05T09:02:25.828Z,17.31
2018-06-05T09:03:25.757Z,17.33
2018-06-05T09:04:25.737Z,17.33
2018-06-05T09:05:25.724Z,17.29
2018-06-05T09:06:25.623Z,17.16
2018-06-05T09:07:25.578Z,17.16
2018-06-05T09:08:25.526Z,17.30
2018-06-05T09:09:25.508Z,17.23
2018-06-05T09:10:25.466Z,17.20
2018-06-05T09:11:25.391Z,17.30
2018-06-05T09:12:25.345Z,17.33
2018-06-05T09:13:25.298Z,17.24
2018-06-05T09:14:25.253Z,17.24
2018-06-05T09:15:25.332Z,17.20
2018-06-05T09:16:25.161Z,17.12
2018-06-05T09:17:25.137Z,17.29
2018-06-05T09:18:25.076Z,17.33
2018-06-05T09:19:25.023Z,17.31
2018-06-05T09:20:25.029Z,17.44
2018-06-05T09:21:24.960Z,17.44
2018-06-05T09:22:24.918Z,17.49
2018-06-05T09:23:24.841Z,17.60
2018-06-05T09:24:24.794Z,17.73
2018-06-05T09:25:24.770Z,17.71
2018-06-05T09:26:24.705Z,17.71
2018-06-05T09:27:24.754Z,17.80
2018-06-05T09:28:24.688Z,17.82
2018-06-05T09:29:24.600Z,17.80
2018-06-05T09:30:24.546Z,17.80
2018-06-05T09:31:24.476Z,17.71
2018-06-05T09:32:24.444Z,17.67
2018-06-05T09:33:24.385Z,17.68
2018-06-05T09:34:24.382Z,17.68
2018-06-05T09:35:24.315Z,17.73
2018-06-05T09:36:24.249Z,17.78
2018-06-05T09:37:24.198Z,17.76
2018-06-05T09:38:24.157Z,17.82
2018-06-05T09:39:24.115Z,17.85
2018-06-05T09:40:24.089Z,17.78
2018-06-05T09:41:24.021Z,17.83
2018-06-05T09:42:23.978Z,17.68
2018-06-05T09:43:23.929Z,17.75
2018-06-05T09:44:23.884Z,17.75
2018-06-05T09:45:23.860Z,17.82
2018-06-05T09:46:23.791Z,17.80
2018-06-05T09:47:23.747Z,17.89
2018-06-05T09:48:23.702Z,17.82
2018-06-05T09:49:23.651Z,17.76
2018-06-05T09:50:23.630Z,17.80
2018-06-05T09:51:23.561Z,17.79
2018-06-05T09:52:23.551Z,17.86
2018-06-05T09:53:23.648Z,17.98
2018-06-05T09:54:23.427Z,18.01
2018-06-05T09:55:23.402Z,18.03
2018-06-05T09:56:23.332Z,17.94
2018-06-05T09:57:23.287Z,17.93
2018-06-05T09:58:23.441Z,18.00
2018-06-05T09:59:23.200Z,18.03
2018-06-05T10:00:23.184Z,18.03
2018-06-05T10:01:23.111Z,17.91
2018-06-05T10:02:23.063Z,17.88
2018-06-05T10:03:23.020Z,17.80
2018-06-05T10:04:22.971Z,17.88
2018-06-05T10:05:22.949Z,17.83
2018-06-05T10:06:22.881Z,17.83
2018-06-05T10:07:22.837Z,17.89
2018-06-05T10:08:22.792Z,17.98
2018-06-05T10:09:22.742Z,18.03
2018-06-05T10:10:22.731Z,18.04
2018-06-05T10:11:22.652Z,18.04
2018-06-05T10:12:22.606Z,17.94
2018-06-05T10:13:22.564Z,17.97
2018-06-05T10:14:22.515Z,17.95
2018-06-05T10:15:22.492Z,18.03
2018-06-05T10:16:22.423Z,18.01
2018-06-05T10:17:22.380Z,18.12
2018-06-05T10:18:22.341Z,18.18
2018-06-05T10:19:22.290Z,18.18
2018-06-05T10:20:22.311Z,18.18
2018-06-05T10:21:22.200Z,18.22
2018-06-05T10:22:22.154Z,18.22
2018-06-05T10:23:22.109Z,18.26
2018-06-05T10:24:22.064Z,18.30
2018-06-05T10:25:22.042Z,18.34
2018-06-05T10:26:21.976Z,18.40
2018-06-05T10:27:21.925Z,18.40
2018-06-05T10:28:21.879Z,18.46
2018-06-05T10:29:21.840Z,18.37
2018-06-05T10:30:21.816Z,18.40
2018-06-05T10:31:21.747Z,18.46
2018-06-05T10:32:21.697Z,18.31
2018-06-05T10:33:21.655Z,18.25
2018-06-05T10:34:21.610Z,18.18
2018-06-05T10:35:21.593Z,18.20
2018-06-05T10:36:21.515Z,18.35
2018-06-05T10:37:21.478Z,18.34
2018-06-05T10:38:21.427Z,18.43
2018-06-05T10:39:21.388Z,18.46
2018-06-05T10:40:21.361Z,18.43
2018-06-05T10:41:21.293Z,18.58
2018-06-05T10:42:21.249Z,18.59
2018-06-05T10:43:21.203Z,18.59
2018-06-05T10:44:21.158Z,18.63
2018-06-05T10:45:21.135Z,18.60
2018-06-05T10:46:21.071Z,18.58
2018-06-05T10:47:21.025Z,18.59
2018-06-05T10:48:20.978Z,18.62
2018-06-05T10:49:20.932Z,18.58
2018-06-05T10:50:20.916Z,18.70
2018-06-05T10:51:20.848Z,18.80
2018-06-05T10:52:20.799Z,18.67
2018-06-05T10:53:20.753Z,18.73
2018-06-05T10:54:20.708Z,18.67
2018-06-05T10:55:20.666Z,18.75
2018-06-05T10:56:20.641Z,18.67
2018-06-05T10:57:20.580Z,18.78
2018-06-05T10:58:20.533Z,18.75
2018-06-05T10:59:20.483Z,18.78
2018-06-05T11:00:20.473Z,18.66
2018-06-05T11:01:20.419Z,18.80
2018-06-05T11:02:20.351Z,18.66
2018-06-05T11:03:20.305Z,18.71
2018-06-05T11:04:20.262Z,18.73
2018-06-05T11:05:20.216Z,18.74
2018-06-05T11:06:20.203Z,18.67
2018-06-05T11:07:20.160Z,18.67
2018-06-05T11:08:20.084Z,18.73
2018-06-05T11:09:20.041Z,18.75
2018-06-05T11:10:19.993Z,18.77
2018-06-05T11:11:19.978Z,18.86
2018-06-05T11:12:19.902Z,18.88
2018-06-05T11:13:19.863Z,18.98
2018-06-05T11:14:19.815Z,19.07
2018-06-05T11:15:19.784Z,19.05
2018-06-05T11:16:19.747Z,19.15
2018-06-05T11:17:19.685Z,19.23
2018-06-05T11:18:19.685Z,19.22
2018-06-05T11:19:19.601Z,19.29
2018-06-05T11:20:19.547Z,19.34
2018-06-05T11:21:19.525Z,19.42
2018-06-05T11:22:19.457Z,19.34
2018-06-05T11:23:19.419Z,19.30
2018-06-05T11:24:19.369Z,19.30
2018-06-05T11:25:19.324Z,19.29
2018-06-05T11:26:19.307Z,19.26
2018-06-05T11:27:19.235Z,19.24
2018-06-05T11:28:19.191Z,19.29
2018-06-05T11:29:19.148Z,19.23
2018-06-05T11:30:19.117Z,19.26
2018-06-05T11:31:19.079Z,19.22
2018-06-05T11:32:19.013Z,19.29
2018-06-05T11:33:18.970Z,19.14
2018-06-05T11:34:18.924Z,19.23
2018-06-05T11:35:18.880Z,19.12
2018-06-05T11:36:18.859Z,19.16
2018-06-05T11:37:18.791Z,19.15
2018-06-05T11:38:18.749Z,19.19
2018-06-05T11:39:18.703Z,19.16
2018-06-05T11:40:18.658Z,19.16
2018-06-05T11:41:18.645Z,19.12
2018-06-05T11:42:18.571Z,19.19
2018-06-05T11:43:18.527Z,19.19
2018-06-05T11:44:18.479Z,19.22
2018-06-05T11:45:18.450Z,19.27
2018-06-05T11:46:18.421Z,19.24
2018-06-05T11:47:18.346Z,19.33
2018-06-05T11:48:18.304Z,19.33
2018-06-05T11:49:18.262Z,19.34
2018-06-05T11:50:18.214Z,19.33
2018-06-05T11:51:18.195Z,19.34
2018-06-05T11:52:18.126Z,19.33
2018-06-05T11:53:18.083Z,19.39
2018-06-05T11:54:18.067Z,19.39
2018-06-05T11:55:17.998Z,19.39
2018-06-05T11:56:17.974Z,19.55
2018-06-05T11:57:17.902Z,19.41
2018-06-05T11:58:17.858Z,19.41
2018-06-05T11:59:17.817Z,19.44
2018-06-05T12:00:17.769Z,19.41
2018-06-05T12:01:17.751Z,19.49
2018-06-05T12:02:17.698Z,19.54
2018-06-05T12:03:17.640Z,19.49
2018-06-05T12:04:17.592Z,19.55
2018-06-05T12:05:17.552Z,19.62
2018-06-05T12:06:17.528Z,19.56
2018-06-05T12:07:17.463Z,19.62
2018-06-05T12:08:17.418Z,19.60
2018-06-05T12:09:17.373Z,19.64
2018-06-05T12:10:17.362Z,19.49
2018-06-05T12:11:17.318Z,19.51
2018-06-05T12:12:17.242Z,19.45
2018-06-05T12:13:17.199Z,19.49
2018-06-05T12:14:17.152Z,19.29
2018-06-05T12:15:17.117Z,19.33
2018-06-05T12:16:17.087Z,19.34
2018-06-05T12:17:17.021Z,19.30
2018-06-05T12:18:16.975Z,19.34
2018-06-05T12:19:16.932Z,19.37
2018-06-05T12:20:16.887Z,19.39
2018-06-05T12:21:16.845Z,19.48
2018-06-05T12:22:16.828Z,19.55
2018-06-05T12:23:16.757Z,19.59
2018-06-05T12:24:16.712Z,19.66
2018-06-05T12:25:16.684Z,19.63
2018-06-05T12:26:16.748Z,19.73
2018-06-05T12:27:16.602Z,19.63
2018-06-05T12:28:16.555Z,19.64
2018-06-05T12:29:16.496Z,19.49
2018-06-05T12:30:16.446Z,19.52
2018-06-05T12:31:16.401Z,19.62
2018-06-05T12:32:16.389Z,19.63
2018-06-05T12:33:16.324Z,19.70
2018-06-05T12:34:16.269Z,19.70
2018-06-05T12:35:16.231Z,19.78
2018-06-05T12:36:16.181Z,19.78
2018-06-05T12:37:16.160Z,19.76
2018-06-05T12:38:16.092Z,19.81
2018-06-05T12:39:16.055Z,19.79
2018-06-05T12:40:16.005Z,19.70
2018-06-05T12:41:15.975Z,19.82
2018-06-05T12:42:15.952Z,19.82
2018-06-05T12:43:15.880Z,19.85
2018-06-05T12:44:15.833Z,19.81
2018-06-05T12:45:15.790Z,19.85
2018-06-05T12:46:15.745Z,20.01
2018-06-05T12:47:15.726Z,19.96
2018-06-05T12:48:15.656Z,20.10
2018-06-05T12:49:15.612Z,20.19
2018-06-05T12:50:15.568Z,20.14
2018-06-05T12:51:15.525Z,20.31
2018-06-05T12:52:15.497Z,20.24
2018-06-05T12:53:15.439Z,20.18